Latest Weather Observations for Hindmarsh Island

IDS60801

Issued at 5:31 pm CST Monday 25 September 2017 (issued every 30 minutes, with the page automatically refreshed every 10 minutes)

About weather observations | Map of weather stations | Latest weather observations for SA | Other Formats
Station Details ID: 023894 Name: HINDMARSH ISLAND AWS Lat: -35.52 Lon: 138.82 Height: 11.0 m
Data from the previous 72 hours. | See also: Recent months at Hindmarsh Island
Date/Time
CST
Temp
°C
App
Temp
°C
Dew
Point
°C
Rel
Hum
%
Delta-T
°C
Wind Press
QNH
hPa
Press
MSL
hPa
Rain since
9am
mm
Dir  Spd
km/h
Gust
km/h
Spd
kts
Gust
kts
25/05:30pm 13.6 9.0 8.0 69 2.8 S 22 26 12 14 1014.6 1014.6 0.0
25/05:00pm 14.1 9.7 7.4 64 3.3 S 20 26 11 14 1014.4 1014.4 0.0
25/04:30pm 14.7 9.7 8.0 64 3.3 SSW 24 28 13 15 1014.2 1014.2 0.0
25/04:00pm 14.9 8.9 7.2 60 3.8 SSW 28 33 15 18 1013.9 1013.9 0.0
25/03:30pm 15.6 10.2 8.1 61 3.8 SSW 26 32 14 17 1013.8 1013.8 0.0
25/03:00pm 15.6 9.7 7.4 58 4.1 SSW 28 33 15 18 1013.8 1013.8 0.0
25/02:30pm 15.8 10.0 8.1 60 3.9 SSW 28 33 15 18 1013.7 1013.7 0.0
25/02:00pm 16.4 10.6 8.1 58 4.2 SW 28 33 15 18 1013.9 1013.9 0.0
25/01:30pm 17.0 12.2 8.9 59 4.2 SW 24 32 13 17 1013.8 1013.8 0.0
25/01:00pm 16.3 11.3 8.0 58 4.2 SW 24 30 13 16 1013.8 1013.8 0.0
25/12:30pm 16.6 12.9 9.5 63 3.7 SW 19 24 10 13 1014.0 1014.0 0.0
25/12:00pm 14.9 10.7 8.4 65 3.3 SW 20 26 11 14 1014.0 1014.0 0.0
25/11:30am 15.4 10.7 9.3 67 3.1 SW 24 30 13 16 1013.9 1013.9 0.0
25/11:00am 15.5 11.2 9.2 66 3.2 SSW 22 28 12 15 1013.7 1013.7 0.0
25/10:30am 16.0 11.8 9.7 66 3.3 SW 22 26 12 14 1013.7 1013.7 0.0
25/10:00am 15.5 10.8 9.4 67 3.1 SW 24 32 13 17 1013.5 1013.5 0.0
25/09:30am 15.5 12.1 9.0 65 3.3 SW 17 20 9 11 1013.5 1013.5 0.0
25/09:00am 15.0 11.2 8.9 67 3.1 WSW 19 24 10 13 1013.2 1013.2 0.2
25/08:30am 14.4 10.6 9.0 70 2.7 WSW 19 24 10 13 1012.5 1012.5 0.2
25/08:00am 13.6 9.6 9.1 74 2.3 WSW 20 28 11 15 1011.9 1011.9 0.2
25/07:30am 12.8 8.8 8.9 77 2.0 WSW 20 28 11 15 1011.4 1011.4 0.2
25/07:00am 12.1 8.1 8.9 81 1.6 W 20 28 11 15 1010.9 1010.9 0.2
25/06:30am 11.4 7.8 8.4 82 1.5 W 17 20 9 11 1010.6 1010.6 0.2
25/06:00am 11.1 8.2 8.0 81 1.5 WSW 13 17 7 9 1010.2 1010.2 0.2
25/05:30am 11.4 8.5 8.3 81 1.5 W 13 20 7 11 1009.9 1009.9 0.2
25/05:00am 11.6 7.1 8.5 81 1.5 W 22 28 12 15 1009.5 1009.5 0.2
25/04:30am 11.9 7.4 8.4 79 1.7 W 22 32 12 17 1009.3 1009.3 0.2
25/04:00am 11.9 7.0 8.4 79 1.7 W 24 30 13 16 1009.0 1009.0 0.2
25/03:30am 12.0 7.1 8.5 79 1.7 W 24 32 13 17 1008.8 1008.8 0.2
25/03:00am 12.2 7.4 8.9 80 1.7 W 24 30 13 16 1008.5 1008.5 0.2
25/02:30am 12.2 7.4 9.0 81 1.6 WNW 24 33 13 18 1008.5 1008.5 0.2
25/02:00am 12.1 7.4 9.1 82 1.5 W 24 32 13 17 1008.3 1008.3 0.2
25/01:30am 12.3 7.1 9.0 80 1.7 W 26 32 14 17 1008.5 1008.5 0.2
25/01:00am 12.4 7.2 8.7 78 1.8 W 26 37 14 20 1008.7 1008.7 0.2
25/12:30am 12.2 8.2 8.3 77 1.9 W 19 24 10 13 1008.8 1008.8 0.2
25/12:00am 12.3 8.0 8.0 75 2.1 W 20 28 11 15 1008.8 1008.8 0.2
 
Date/Time
CST
Temp
°C
App
Temp
°C
Dew
Point
°C
Rel
Hum
%
Delta-T
°C
Wind Press
QNH
hPa
Press
MSL
hPa
Rain since
9am
mm
Dir  Spd
km/h
Gust
km/h
Spd
kts
Gust
kts
24/11:30pm 12.3 8.1 8.2 76 2.0 W 20 30 11 16 1008.8 1008.8 0.2
24/11:00pm 12.2 7.6 8.1 76 2.0 W 22 30 12 16 1008.9 1008.9 0.2
24/10:30pm 12.3 7.0 8.4 77 1.9 WNW 26 39 14 21 1008.8 1008.8 0.2
24/10:00pm 12.6 8.2 8.9 78 1.9 WNW 22 35 12 19 1008.7 1008.7 0.2
24/09:30pm 12.6 7.0 8.7 77 2.0 WNW 28 43 15 23 1008.3 1008.3 0.2
24/09:18pm 12.5 6.5 8.6 77 1.9 WNW 30 48 16 26 1008.4 1008.4 0.2
24/09:00pm 12.9 6.3 8.4 74 2.2 WNW 33 48 18 26 1008.3 1008.3 0.2
24/08:30pm 13.0 7.3 8.3 73 2.3 WNW 28 43 15 23 1007.7 1007.7 0.2
24/08:00pm 13.0 6.6 8.5 74 2.2 WNW 32 43 17 23 1007.4 1007.4 0.2
24/07:30pm 12.9 6.8 8.4 74 2.2 WNW 30 46 16 25 1006.8 1006.8 0.2
24/07:04pm 12.9 5.5 8.4 74 2.2 WNW 37 56 20 30 1006.6 1006.6 0.2
24/07:00pm 13.0 5.2 8.3 73 2.3 WNW 39 56 21 30 1006.4 1006.4 0.2
24/06:52pm 12.9 7.2 8.4 74 2.2 WNW 28 50 15 27 1006.4 1006.4 0.2
24/06:30pm 12.8 6.8 8.5 75 2.1 WNW 30 43 16 23 1006.2 1006.2 0.2
24/06:12pm 12.8 5.9 8.9 77 2.0 W 35 54 19 29 1006.1 1006.1 0.2
24/06:00pm 13.3 6.8 8.8 74 2.3 WNW 33 48 18 26 1005.7 1005.7 0.0
24/05:30pm 13.5 5.9 9.0 74 2.3 W 39 50 21 27 1005.3 1005.3 0.0
24/05:18pm 13.8 5.3 8.4 70 2.7 W 43 61 23 33 1005.0 1005.0 0.0
24/05:00pm 15.4 7.2 8.4 63 3.5 W 41 54 22 29 1004.6 1004.6 0.0
24/04:30pm 15.1 6.9 8.1 63 3.5 W 41 59 22 32 1004.2 1004.2 0.0
24/04:00pm 16.0 8.2 6.7 54 4.6 WNW 37 59 20 32 1003.5 1003.5 0.0
24/03:30pm 16.5 7.5 6.3 51 5.0 WNW 43 65 23 35 1003.3 1003.3 0.0
24/03:00pm 16.9 7.5 5.5 47 5.5 WNW 44 67 24 36 1003.0 1003.0 0.0
24/02:30pm 17.1 7.3 5.1 45 5.8 WNW 46 69 25 37 1003.2 1003.2 0.0
24/02:00pm 17.0 8.0 6.5 50 5.2 WNW 43 61 23 33 1003.2 1003.2 0.0
24/01:30pm 16.8 6.8 6.0 49 5.3 WNW 48 67 26 36 1003.2 1003.2 0.0
24/01:00pm 16.4 7.1 6.0 50 5.0 WNW 44 65 24 35 1003.0 1003.0 0.0
24/12:30pm 17.0 8.5 5.3 46 5.6 WNW 39 59 21 32 1002.9 1002.9 0.0
24/12:00pm 16.4 7.4 6.2 51 5.0 WNW 43 63 23 34 1002.8 1002.8 0.0
24/11:31am 16.3 7.5 7.3 55 4.5 WNW 43 61 23 33 1002.8 1002.8 0.0
24/11:30am 16.2 7.8 7.2 55 4.5 WNW 41 57 22 31 1002.8 1002.8 0.0
24/11:06am 16.7 8.3 7.4 54 4.6 WNW 41 59 22 32 1002.8 1002.8 0.0
24/11:00am 16.5 7.4 6.1 50 5.1 WNW 43 59 23 32 1002.7 1002.7 0.0
24/10:31am 14.9 5.8 6.0 55 4.3 W 43 61 23 33 1002.8 1002.8 0.0
24/10:30am 15.0 5.8 6.3 56 4.2 W 44 61 24 33 1002.9 1002.9 0.0
24/10:00am 15.5 7.2 6.0 53 4.6 WNW 39 61 21 33 1002.8 1002.8 0.0
24/09:30am 15.9 6.9 6.3 53 4.7 WNW 43 63 23 34 1002.8 1002.8 0.0
24/09:06am 15.3 6.4 6.8 57 4.2 WNW 43 61 23 33 1002.7 1002.7 0.0
24/09:00am 15.3 6.5 7.1 58 4.1 WNW 43 59 23 32 1002.6 1002.6 1.0
24/08:30am 15.2 7.0 6.7 57 4.2 WNW 39 57 21 31 1002.3 1002.3 1.0
24/08:14am 14.8 6.7 6.9 59 3.9 WNW 39 57 21 31 1002.2 1002.2 1.0
24/08:00am 14.6 7.0 7.4 62 3.5 WNW 37 50 20 27 1002.4 1002.4 1.0
24/07:31am 14.1 6.5 7.4 64 3.3 WNW 37 56 20 30 1002.0 1002.0 1.0
24/07:30am 14.2 7.0 7.7 65 3.2 WNW 35 52 19 28 1002.0 1002.0 1.0
24/07:00am 13.4 6.7 7.4 67 2.9 NW 32 50 17 27 1001.6 1001.6 1.0
24/06:55am 13.1 7.1 7.1 67 2.9 WNW 28 50 15 27 1001.5 1001.5 1.0
24/06:30am 13.1 6.8 7.3 68 2.8 WNW 30 46 16 25 1001.7 1001.7 1.0
24/06:18am 13.1 6.5 7.8 70 2.6 WNW 32 50 17 27 1001.5 1001.5 1.0
24/06:00am 13.1 6.9 8.0 71 2.5 WNW 30 44 16 24 1001.4 1001.4 1.0
24/05:30am 13.1 6.8 7.3 68 2.8 WNW 30 43 16 23 1001.1 1001.1 1.0
24/05:01am 13.3 6.9 7.1 66 3.0 WNW 30 48 16 26 1000.6 1000.6 1.0
24/05:00am 13.4 6.7 7.2 66 3.0 WNW 32 48 17 26 1000.6 1000.6 1.0
24/04:30am 13.7 4.8 7.0 64 3.3 WNW 43 61 23 33 1000.5 1000.5 1.0
24/04:09am 13.4 6.8 7.6 68 2.8 WNW 32 50 17 27 1000.5 1000.5 1.0
24/04:00am 13.6 6.8 7.8 68 2.9 WNW 33 50 18 27 1000.3 1000.3 1.0
24/03:30am 13.4 6.9 8.3 71 2.6 WNW 32 50 17 27 1000.4 1000.4 1.0
24/03:25am 13.3 6.8 8.2 71 2.5 WNW 32 50 17 27 1000.5 1000.5 1.0
24/03:00am 13.1 7.8 8.4 73 2.4 WNW 26 37 14 20 1000.7 1000.7 1.0
24/02:30am 13.3 7.1 8.0 70 2.6 WNW 30 43 16 23 1000.8 1000.8 1.0
24/02:11am 13.4 7.2 7.8 69 2.8 WNW 30 52 16 28 1000.9 1000.9 1.0
24/02:00am 13.3 7.2 8.2 71 2.5 WNW 30 41 16 22 1001.1 1001.1 1.0
24/01:39am 13.1 7.1 8.6 74 2.2 WNW 30 54 16 29 1001.1 1001.1 1.0
24/01:30am 12.7 6.6 8.4 75 2.1 WNW 30 43 16 23 1001.4 1001.4 1.0
24/01:00am 12.5 6.7 7.8 73 2.3 WNW 28 43 15 23 1001.4 1001.4 1.0
24/12:30am 12.2 6.0 7.7 74 2.2 WNW 30 41 16 22 1001.4 1001.4 1.0
24/12:00am 11.3 0.4 7.2 76 2.0 WNW 54 98 29 53 1002.3 1002.3 1.0
 
Date/Time
CST
Temp
°C
App
Temp
°C
Dew
Point
°C
Rel
Hum
%
Delta-T
°C
Wind Press
QNH
hPa
Press
MSL
hPa
Rain since
9am
mm
Dir  Spd
km/h
Gust
km/h
Spd
kts
Gust
kts
23/11:52pm 11.0 1.5 6.9 76 1.9 WNW 46 98 25 53 1001.9 1001.9 0.8
23/11:50pm 12.7 3.9 7.2 69 2.7 WNW 43 65 23 35 1002.3 1002.3 0.0
23/11:42pm 15.0 8.3 9.6 70 2.8 WNW 35 61 19 33 1001.7 1001.7 0.0
23/11:30pm 14.9 8.1 9.3 69 2.9 NW 35 52 19 28 1001.7 1001.7 0.0
23/11:05pm 15.2 8.4 9.3 68 3.0 NW 35 57 19 31 1001.8 1001.8 0.0
23/11:00pm 15.0 8.5 9.1 68 3.0 NW 33 46 18 25 1002.0 1002.0 0.0
23/10:43pm 14.9 8.4 9.1 68 3.0 NW 33 52 18 28 1002.2 1002.2 0.0
23/10:30pm 14.9 8.5 9.3 69 2.9 NW 33 48 18 26 1002.0 1002.0 0.0
23/10:20pm 14.8 9.0 9.4 70 2.8 NW 30 48 16 26 1002.2 1002.2 0.0
23/10:00pm 14.7 9.1 8.9 68 2.9 WNW 28 39 15 21 1002.5 1002.5 0.0
23/09:30pm 14.8 8.5 9.0 68 3.0 WNW 32 46 17 25 1002.7 1002.7 0.0
23/09:00pm 14.9 8.6 8.8 67 3.1 WNW 32 50 17 27 1002.4 1002.4 0.0
23/08:52pm 14.9 8.9 8.8 67 3.1 WNW 30 50 16 27 1002.4 1002.4 0.0
23/08:30pm 14.9 8.7 9.3 69 2.9 WNW 32 41 17 22 1002.6 1002.6 0.0
23/08:00pm 14.9 9.4 9.3 69 2.9 WNW 28 39 15 21 1002.3 1002.3 0.0
23/07:30pm 15.3 9.0 8.8 65 3.3 WNW 32 48 17 26 1001.8 1001.8 0.0
23/07:25pm 15.1 9.1 8.8 66 3.2 WNW 30 48 16 26 1001.8 1001.8 0.0
23/07:00pm 15.2 8.9 9.1 67 3.1 WNW 32 43 17 23 1001.5 1001.5 0.0
23/06:48pm 15.2 9.6 8.9 66 3.2 WNW 28 46 15 25 1001.4 1001.4 0.0
23/06:30pm 15.5 9.8 8.5 63 3.6 WNW 28 39 15 21 1001.2 1001.2 0.0
23/06:26pm 15.5 9.4 8.3 62 3.6 WNW 30 48 16 26 1001.1 1001.1 0.0
23/06:00pm 15.8 9.5 8.8 63 3.6 WNW 32 43 17 23 1000.9 1000.9 0.0
23/05:36pm 16.4 8.8 8.9 61 3.9 WNW 39 57 21 31 1000.9 1000.9 0.0
23/05:30pm 16.5 8.5 9.0 61 3.9 WNW 41 57 22 31 1000.6 1000.6 0.0
23/05:18pm 16.9 9.6 8.8 59 4.2 W 37 56 20 30 1000.5 1000.5 0.0
23/05:00pm 17.1 9.8 8.8 58 4.3 W 37 50 20 27 1000.3 1000.3 0.0
23/04:31pm 17.4 8.9 8.5 56 4.6 WNW 43 67 23 36 999.9 999.9 0.0
23/04:30pm 17.6 9.1 8.7 56 4.6 WNW 43 57 23 31 1000.1 1000.1 0.0
23/04:00pm 18.1 9.5 8.7 54 4.9 WNW 44 69 24 37 1000.0 1000.0 0.0
23/03:43pm 18.0 9.3 8.6 54 4.9 WNW 44 63 24 34 999.7 999.7 0.0
23/03:30pm 18.2 9.0 8.2 52 5.2 W 46 63 25 34 999.7 999.7 0.0
23/03:00pm 18.3 8.5 7.1 48 5.7 WNW 48 69 26 37 999.3 999.3 0.0
23/02:44pm 18.6 10.0 8.8 53 5.1 W 44 67 24 36 999.0 999.0 0.0
23/02:30pm 19.2 10.6 8.8 51 5.5 WNW 44 61 24 33 998.8 998.8 0.0
23/02:02pm 19.7 10.1 7.8 46 6.1 W 48 67 26 36 998.5 998.5 0.0
23/02:00pm 20.0 10.2 8.7 48 5.9 W 50 67 27 36 998.5 998.5 0.0
23/01:30pm 19.5 10.2 9.1 51 5.5 W 48 67 26 36 998.1 998.1 0.0
23/01:01pm 20.6 12.5 10.7 53 5.4 WNW 44 63 24 34 997.6 997.6 0.0
23/01:00pm 20.6 12.1 10.7 53 5.4 WNW 46 63 25 34 997.5 997.5 0.0
23/12:30pm 21.0 12.9 10.8 52 5.6 WNW 44 65 24 35 997.1 997.1 0.0
23/12:03pm 21.3 13.4 10.8 51 5.8 WNW 43 63 23 34 996.8 996.8 0.0
23/12:00pm 21.4 13.7 12.0 55 5.3 WNW 44 59 24 32 996.8 996.8 0.0
23/11:30am 21.9 13.2 10.1 47 6.5 WNW 46 67 25 36 996.4 996.4 0.0
23/11:00am 23.4 15.2 8.3 38 8.0 WNW 41 61 22 33 995.4 995.4 0.0
23/10:50am 23.4 15.5 7.9 37 8.2 NW 39 57 21 31 995.1 995.1 0.0
23/10:30am 23.3 16.7 8.6 39 7.9 NW 33 52 18 28 994.7 994.7 0.0
23/10:25am 23.6 19.4 9.6 41 7.6 NNW 22 43 12 23 994.8 994.8 0.0
23/10:00am 20.2 18.6 12.7 62 4.2 N 13 20 7 11 995.1 995.1 0.0
23/09:30am 19.2 17.5 12.5 65 3.8 N 13 20 7 11 995.5 995.5 0.0
23/09:00am 18.6 17.8 12.8 69 3.3 N 9 13 5 7 995.7 995.7 0.0
23/08:30am 17.2 16.2 12.3 73 2.7 N 9 17 5 9 996.0 996.0 0.0
23/08:00am 15.6 14.7 12.5 82 1.7 NNW 9 13 5 7 995.7 995.7 0.0
23/07:30am 14.6 14.7 12.6 88 1.1 NW 4 11 2 6 995.7 995.7 0.0
23/07:00am 14.1 14.8 12.3 89 1.0 CALM 0 0 0 0 995.8 995.8 0.0
23/06:30am 13.2 11.9 11.4 89 1.0 NW 9 11 5 6 996.4 996.4 0.0
23/06:00am 12.9 12.8 10.8 87 1.1 WSW 2 9 1 5 996.1 996.1 0.0
23/05:30am 13.3 12.4 11.4 88 1.0 WNW 7 11 4 6 996.0 996.0 0.0
23/05:00am 13.3 12.4 11.2 87 1.1 NNW 7 9 4 5 996.0 996.0 0.0
23/04:30am 14.0 13.5 12.0 88 1.1 WSW 6 9 3 5 996.7 996.7 0.0
23/04:00am 13.7 13.1 11.6 87 1.1 ENE 6 9 3 5 996.9 996.9 0.0
23/03:30am 14.1 13.4 12.0 87 1.1 NW 7 15 4 8 998.1 998.1 0.0
23/03:00am 14.1 13.3 11.6 85 1.3 W 7 13 4 7 998.7 998.7 0.0
23/02:30am 15.0 12.6 12.5 85 1.4 SSW 17 39 9 21 999.0 999.0 0.0
23/02:00am 14.9 12.8 12.4 85 1.4 SW 15 26 8 14 999.8 999.8 0.0
23/01:30am 14.6 14.1 12.1 85 1.4 NNW 6 7 3 4 1000.0 1000.0 0.0
23/01:00am 14.1 11.7 11.4 84 1.4 E 15 17 8 9 998.8 998.8 0.0
23/12:30am 15.0 13.6 12.1 83 1.6 S 11 13 6 7 999.6 999.6 0.0
23/12:24am 15.1 13.3 12.2 83 1.6 S 13 17 7 9 999.6 999.6 0.0
23/12:00am 15.6 11.8 12.4 81 1.8 SW 24 30 13 16 1001.6 1001.6 0.0
 
Date/Time
CST
Temp
°C
App
Temp
°C
Dew
Point
°C
Rel
Hum
%
Delta-T
°C
Wind Press
QNH
hPa
Press
MSL
hPa
Rain since
9am
mm
Dir  Spd
km/h
Gust
km/h
Spd
kts
Gust
kts
22/11:30pm 16.4 11.6 11.6 73 2.6 SW 28 39 15 21 1002.1 1002.1 0.0
22/11:28pm 16.5 11.6 11.4 72 2.8 SW 28 39 15 21 1002.3 1002.3 0.0
22/11:00pm 16.9 16.0 11.2 69 3.1 S 7 19 4 10 1002.0 1002.0 0.0
22/10:30pm 17.4 11.8 11.4 68 3.3 SSW 32 37 17 20 1002.0 1002.0 0.0
22/10:24pm 17.5 13.2 10.9 65 3.6 SSW 24 37 13 20 1002.6 1002.6 0.0
22/10:00pm 18.7 16.2 9.8 56 4.7 SE 13 19 7 10 1001.0 1001.0 0.0
22/09:30pm 18.6 16.2 8.6 52 5.2 NNE 11 15 6 8 1001.5 1001.5 0.0
22/09:00pm 19.6 15.6 8.9 50 5.6 N 20 24 11 13 1001.7 1001.7 0.0
22/08:30pm 18.9 16.2 10.5 58 4.5 NNE 15 20 8 11 1001.8 1001.8 0.0
22/08:00pm 21.1 18.3 8.4 44 6.7 NW 13 17 7 9 1002.2 1002.2 0.0
22/07:30pm 21.8 18.9 8.0 41 7.2 N 13 17 7 9 1002.1 1002.1 0.0
22/07:00pm 22.1 19.1 7.9 40 7.4 NW 13 17 7 9 1002.1 1002.1 0.0
22/06:30pm 23.3 20.1 8.6 39 7.9 WNW 15 20 8 11 1002.0 1002.0 0.0
22/06:00pm 25.5 22.7 7.1 31 9.7 NNW 11 13 6 7 1001.8 1001.8 0.0

Other Formats:

Comma delimited format used in spreadsheet applications
http://www.bom.gov.au/fwo/IDS60801/IDS60801.94677.axf

JavaScript Object Notation format (JSON) in row-major order
http://www.bom.gov.au/fwo/IDS60801/IDS60801.94677.json